createdAt,value
2022-09-24T00:00:08.003Z,49.26
2022-09-24T00:01:09.253Z,48.46
2022-09-24T00:02:08.115Z,47.37
2022-09-24T00:03:08.034Z,48.87
2022-09-24T00:04:08.011Z,49.31
2022-09-24T00:05:07.998Z,48.21
2022-09-24T00:06:07.978Z,49.60
2022-09-24T00:07:07.990Z,50.10
2022-09-24T00:08:07.955Z,48.78
2022-09-24T00:09:08.034Z,49.18
2022-09-24T00:10:07.955Z,50.36
2022-09-24T00:11:07.947Z,48.30
2022-09-24T00:12:07.966Z,46.86
2022-09-24T00:13:07.936Z,47.91
2022-09-24T00:14:08.057Z,47.20
2022-09-24T00:15:07.941Z,48.22
2022-09-24T00:16:08.013Z,47.12
2022-09-24T00:17:07.934Z,47.88
2022-09-24T00:18:07.938Z,47.58
2022-09-24T00:19:07.927Z,47.15
2022-09-24T00:20:07.888Z,47.40
2022-09-24T00:21:07.923Z,47.60
2022-09-24T00:22:07.939Z,47.13
2022-09-24T00:23:07.887Z,49.01
2022-09-24T00:24:07.929Z,48.57
2022-09-24T00:25:07.848Z,49.50
2022-09-24T00:26:07.879Z,48.42
2022-09-24T00:27:07.933Z,47.16
2022-09-24T00:28:08.017Z,48.01
2022-09-24T00:29:07.837Z,47.47
2022-09-24T00:30:07.884Z,48.99
2022-09-24T00:31:07.923Z,47.22
2022-09-24T00:32:07.815Z,47.65
2022-09-24T00:33:07.799Z,46.98
2022-09-24T00:34:07.805Z,47.46
2022-09-24T00:35:07.878Z,47.68
2022-09-24T00:36:07.794Z,47.66
2022-09-24T00:37:07.788Z,47.34
2022-09-24T00:38:07.786Z,47.03
2022-09-24T00:39:07.774Z,47.00
2022-09-24T00:40:07.857Z,48.73
2022-09-24T00:41:07.780Z,48.82
2022-09-24T00:42:07.800Z,47.30
2022-09-24T00:43:07.779Z,47.57
2022-09-24T00:44:07.805Z,47.08
2022-09-24T00:45:07.745Z,47.57
2022-09-24T00:46:07.811Z,49.11
2022-09-24T00:47:07.784Z,47.17
2022-09-24T00:48:07.746Z,47.53
2022-09-24T00:49:07.754Z,48.34
2022-09-24T00:50:07.711Z,47.09
2022-09-24T00:51:07.751Z,47.07
2022-09-24T00:52:07.766Z,47.30
2022-09-24T00:53:07.706Z,47.81
2022-09-24T00:54:07.825Z,49.66
2022-09-24T00:55:07.708Z,49.91
2022-09-24T00:56:07.716Z,48.06
2022-09-24T00:57:07.736Z,47.56
2022-09-24T00:58:07.682Z,47.57
2022-09-24T00:59:07.692Z,47.42
2022-09-24T01:00:07.682Z,47.59
2022-09-24T01:01:07.706Z,47.90
2022-09-24T01:02:07.824Z,48.52
2022-09-24T01:03:07.676Z,47.67
2022-09-24T01:04:07.676Z,49.11
2022-09-24T01:05:07.658Z,47.97
2022-09-24T01:06:07.646Z,52.62
2022-09-24T01:07:07.726Z,49.48
2022-09-24T01:08:07.634Z,47.06
2022-09-24T01:09:07.623Z,46.86
2022-09-24T01:10:07.617Z,46.91
2022-09-24T01:11:07.644Z,46.64
2022-09-24T01:12:07.673Z,46.54
2022-09-24T01:13:07.637Z,46.60
2022-09-24T01:14:07.590Z,46.72
2022-09-24T01:15:07.630Z,46.50
2022-09-24T01:16:07.640Z,46.75
2022-09-24T01:17:07.581Z,46.86
2022-09-24T01:18:07.606Z,47.58
2022-09-24T01:19:07.614Z,47.67
2022-09-24T01:20:07.575Z,47.36
2022-09-24T01:21:07.581Z,47.81
2022-09-24T01:22:07.568Z,48.31
2022-09-24T01:23:07.568Z,47.64
2022-09-24T01:24:07.707Z,48.37
2022-09-24T01:25:07.553Z,47.92
2022-09-24T01:26:07.536Z,47.50
2022-09-24T01:27:07.556Z,47.30
2022-09-24T01:28:07.523Z,47.30
2022-09-24T01:29:07.559Z,47.42
2022-09-24T01:30:07.512Z,47.65
2022-09-24T01:31:07.605Z,47.74
2022-09-24T01:32:07.545Z,47.79
2022-09-24T01:33:07.527Z,47.25
2022-09-24T01:34:07.572Z,47.31
2022-09-24T01:35:07.567Z,47.40
2022-09-24T01:36:07.506Z,48.02
2022-09-24T01:37:07.505Z,47.85
2022-09-24T01:38:07.479Z,47.32
2022-09-24T01:39:07.503Z,47.13
2022-09-24T01:40:07.558Z,47.98
2022-09-24T01:41:07.493Z,47.90
2022-09-24T01:42:07.523Z,48.02
2022-09-24T01:43:07.453Z,48.13
2022-09-24T01:44:07.650Z,49.37
2022-09-24T01:45:07.472Z,47.50
2022-09-24T01:46:07.532Z,47.78
2022-09-24T01:47:07.483Z,47.35
2022-09-24T01:48:07.454Z,47.52
2022-09-24T01:49:07.455Z,49.18
2022-09-24T01:50:07.433Z,50.83
2022-09-24T01:51:07.471Z,48.09
2022-09-24T01:52:07.415Z,48.75
2022-09-24T01:53:07.422Z,47.67
2022-09-24T01:54:07.486Z,47.38
2022-09-24T01:55:07.450Z,48.55
2022-09-24T01:56:07.409Z,49.71
2022-09-24T01:57:07.390Z,48.47
2022-09-24T01:58:07.375Z,48.15
2022-09-24T01:59:07.380Z,47.82
2022-09-24T02:00:07.400Z,47.54
2022-09-24T02:01:07.464Z,47.33
2022-09-24T02:02:07.428Z,47.31
2022-09-24T02:03:07.370Z,47.26
2022-09-24T02:04:07.479Z,47.25
2022-09-24T02:05:07.364Z,47.05
2022-09-24T02:06:07.350Z,47.27
2022-09-24T02:07:07.347Z,48.05
2022-09-24T02:08:07.334Z,47.10
2022-09-24T02:09:07.354Z,49.67
2022-09-24T02:10:07.362Z,49.40
2022-09-24T02:11:07.372Z,47.69
2022-09-24T02:12:07.311Z,47.30
2022-09-24T02:13:07.303Z,46.95
2022-09-24T02:14:07.356Z,46.90
2022-09-24T02:15:07.344Z,47.65
2022-09-24T02:16:07.321Z,46.70
2022-09-24T02:17:07.338Z,47.17
2022-09-24T02:18:07.309Z,48.07
2022-09-24T02:19:07.288Z,48.56
2022-09-24T02:20:07.274Z,48.23
2022-09-24T02:21:07.278Z,46.62
2022-09-24T02:22:07.294Z,46.67
2022-09-24T02:23:07.251Z,46.73
2022-09-24T02:24:07.354Z,48.04
2022-09-24T02:25:07.271Z,47.48
2022-09-24T02:26:07.230Z,47.53
2022-09-24T02:27:07.269Z,47.12
2022-09-24T02:28:07.215Z,48.09
2022-09-24T02:29:07.282Z,47.99
2022-09-24T02:30:07.229Z,47.92
2022-09-24T02:31:07.271Z,47.63
2022-09-24T02:32:07.263Z,47.68
2022-09-24T02:33:08.231Z,47.91
2022-09-24T02:34:07.308Z,48.79
2022-09-24T02:35:07.215Z,49.16
2022-09-24T02:36:07.187Z,47.54
2022-09-24T02:37:07.184Z,48.26
2022-09-24T02:38:07.187Z,47.33
2022-09-24T02:39:07.168Z,47.11
2022-09-24T02:40:07.294Z,46.97
2022-09-24T02:41:07.169Z,46.99
2022-09-24T02:42:07.236Z,47.52
2022-09-24T02:43:07.171Z,46.96
2022-09-24T02:44:07.277Z,47.02
2022-09-24T02:45:07.195Z,47.14
2022-09-24T02:46:07.243Z,48.06
2022-09-24T02:47:07.149Z,47.39
2022-09-24T02:48:07.150Z,47.22
2022-09-24T02:49:07.113Z,48.38
2022-09-24T02:50:07.152Z,46.98
2022-09-24T02:51:07.117Z,47.25
2022-09-24T02:52:07.136Z,46.86
2022-09-24T02:53:07.116Z,46.80
2022-09-24T02:54:07.199Z,46.73
2022-09-24T02:55:07.124Z,46.87
2022-09-24T02:56:07.083Z,49.36
2022-09-24T02:57:07.094Z,48.85
2022-09-24T02:58:07.183Z,47.68
2022-09-24T02:59:07.083Z,48.12
2022-09-24T03:00:07.127Z,50.08
2022-09-24T03:01:07.083Z,48.01
2022-09-24T03:02:07.219Z,48.80
2022-09-24T03:03:07.162Z,47.22
2022-09-24T03:04:07.089Z,47.19
2022-09-24T03:05:07.049Z,47.25
2022-09-24T03:06:07.106Z,47.36
2022-09-24T03:07:07.062Z,48.89
2022-09-24T03:08:07.038Z,48.81
2022-09-24T03:09:07.015Z,47.91
2022-09-24T03:10:07.038Z,47.83
2022-09-24T03:11:07.056Z,47.37
2022-09-24T03:12:07.019Z,47.45
2022-09-24T03:13:07.003Z,50.46
2022-09-24T03:14:07.121Z,48.20
2022-09-24T03:15:06.996Z,47.26
2022-09-24T03:16:07.097Z,47.33
2022-09-24T03:17:07.017Z,47.88
2022-09-24T03:18:07.002Z,47.59
2022-09-24T03:19:07.025Z,51.05
2022-09-24T03:20:06.982Z,47.80
2022-09-24T03:21:06.956Z,48.01
2022-09-24T03:22:06.982Z,48.89
2022-09-24T03:23:06.962Z,47.47
2022-09-24T03:24:07.000Z,48.16
2022-09-24T03:25:06.964Z,47.73
2022-09-24T03:26:06.942Z,50.05
2022-09-24T03:27:06.983Z,50.44
2022-09-24T03:28:07.020Z,48.63
2022-09-24T03:29:06.942Z,48.02
2022-09-24T03:30:06.925Z,49.06
2022-09-24T03:31:06.963Z,50.09
2022-09-24T03:32:06.963Z,48.81
2022-09-24T03:33:06.898Z,47.96
2022-09-24T03:34:06.977Z,49.35
2022-09-24T03:35:06.913Z,50.61
2022-09-24T03:36:06.908Z,49.01
2022-09-24T03:37:06.934Z,51.21
2022-09-24T03:38:06.945Z,52.32
2022-09-24T03:39:06.967Z,49.04
2022-09-24T03:40:06.998Z,47.41
2022-09-24T03:41:06.860Z,47.77
2022-09-24T03:42:06.894Z,49.50
2022-09-24T03:43:06.932Z,48.03
2022-09-24T03:44:06.901Z,48.04
2022-09-24T03:45:06.863Z,48.17
2022-09-24T03:46:06.931Z,48.19
2022-09-24T03:47:06.860Z,47.99
2022-09-24T03:48:06.919Z,49.54
2022-09-24T03:49:06.839Z,46.63
2022-09-24T03:50:06.835Z,48.47
2022-09-24T03:51:06.842Z,49.99
2022-09-24T03:52:06.815Z,48.92
2022-09-24T03:53:06.841Z,48.08
2022-09-24T03:54:06.897Z,48.73
2022-09-24T03:55:06.791Z,47.89
2022-09-24T03:56:06.785Z,49.13
2022-09-24T03:57:06.796Z,53.98
2022-09-24T03:58:06.783Z,50.37
2022-09-24T03:59:06.821Z,48.51
2022-09-24T04:00:06.764Z,48.33
2022-09-24T04:01:06.775Z,47.71
2022-09-24T04:02:06.885Z,48.19
2022-09-24T04:03:06.815Z,48.27
2022-09-24T04:04:06.781Z,47.29
2022-09-24T04:05:06.782Z,50.46
2022-09-24T04:06:06.769Z,48.81
2022-09-24T04:07:06.740Z,50.93
2022-09-24T04:08:06.746Z,50.40
2022-09-24T04:09:06.759Z,49.70
2022-09-24T04:10:06.770Z,51.27
2022-09-24T04:11:06.777Z,48.95
2022-09-24T04:12:06.729Z,48.84
2022-09-24T04:13:06.727Z,47.81
2022-09-24T04:14:06.858Z,48.94
2022-09-24T04:15:06.786Z,48.35
2022-09-24T04:16:06.796Z,48.05
2022-09-24T04:17:06.702Z,49.52
2022-09-24T04:18:06.812Z,54.13
2022-09-24T04:19:06.687Z,49.03
2022-09-24T04:20:06.670Z,48.30
2022-09-24T04:21:06.683Z,48.73
2022-09-24T04:22:06.798Z,50.82
2022-09-24T04:23:06.696Z,50.02
2022-09-24T04:24:06.760Z,48.84
2022-09-24T04:25:08.348Z,47.34
2022-09-24T04:26:06.661Z,49.30
2022-09-24T04:27:06.652Z,47.47
2022-09-24T04:28:06.683Z,48.71
2022-09-24T04:29:06.643Z,50.90
2022-09-24T04:30:06.668Z,53.63
2022-09-24T04:31:06.643Z,54.08
2022-09-24T04:32:06.617Z,50.56
2022-09-24T04:33:06.634Z,49.73
2022-09-24T04:34:06.774Z,49.76
2022-09-24T04:35:07.721Z,49.12
2022-09-24T04:36:07.611Z,48.98
2022-09-24T04:37:06.585Z,50.14
2022-09-24T04:38:06.612Z,50.42
2022-09-24T04:39:06.646Z,50.81
2022-09-24T04:40:06.630Z,50.30
2022-09-24T04:41:06.583Z,53.39
2022-09-24T04:42:06.588Z,53.94
2022-09-24T04:43:06.566Z,51.13
2022-09-24T04:44:06.678Z,48.15
2022-09-24T04:45:06.594Z,50.27
2022-09-24T04:46:06.696Z,50.58
2022-09-24T04:47:06.631Z,50.12
2022-09-24T04:48:06.569Z,47.80
2022-09-24T04:49:07.666Z,49.80
2022-09-24T04:50:06.539Z,51.96
2022-09-24T04:51:06.539Z,48.10
2022-09-24T04:52:06.617Z,52.30
2022-09-24T04:53:06.552Z,52.43
2022-09-24T04:54:06.556Z,52.11
2022-09-24T04:55:06.513Z,49.44
2022-09-24T04:56:06.582Z,49.80
2022-09-24T04:57:06.498Z,49.50
2022-09-24T04:58:06.523Z,51.40
2022-09-24T04:59:06.491Z,52.74
2022-09-24T05:00:06.515Z,48.57
2022-09-24T05:01:06.491Z,48.95
2022-09-24T05:02:09.492Z,48.82
2022-09-24T05:03:07.550Z,53.98
2022-09-24T05:04:06.464Z,50.17
2022-09-24T05:05:06.494Z,49.10
2022-09-24T05:06:06.464Z,50.49
2022-09-24T05:07:06.488Z,48.35
2022-09-24T05:08:06.443Z,47.63
2022-09-24T05:09:10.375Z,47.86
2022-09-24T05:10:08.439Z,50.49
2022-09-24T05:11:06.461Z,48.56
2022-09-24T05:12:06.462Z,51.01
2022-09-24T05:13:06.506Z,49.84
2022-09-24T05:14:06.404Z,53.98
2022-09-24T05:15:06.420Z,52.13
2022-09-24T05:16:06.468Z,52.57
2022-09-24T05:17:06.413Z,52.93
2022-09-24T05:18:06.437Z,51.54
2022-09-24T05:19:06.435Z,50.37
2022-09-24T05:20:06.395Z,48.76
2022-09-24T05:21:06.386Z,51.81
2022-09-24T05:22:06.423Z,50.09
2022-09-24T05:23:06.401Z,51.75
2022-09-24T05:24:06.399Z,52.41
2022-09-24T05:25:06.367Z,50.34
2022-09-24T05:26:06.380Z,50.12
2022-09-24T05:27:06.362Z,55.40
2022-09-24T05:28:06.471Z,52.65
2022-09-24T05:29:06.382Z,51.51
2022-09-24T05:30:06.369Z,51.31
2022-09-24T05:31:06.387Z,52.42
2022-09-24T05:32:06.342Z,51.97
2022-09-24T05:33:06.331Z,55.78
2022-09-24T05:34:06.456Z,51.93
2022-09-24T05:35:06.321Z,50.42
2022-09-24T05:36:06.320Z,51.11
2022-09-24T05:37:06.298Z,51.33
2022-09-24T05:38:06.313Z,52.80
2022-09-24T05:39:06.392Z,53.51
2022-09-24T05:40:06.512Z,49.16
2022-09-24T05:41:06.358Z,52.38
2022-09-24T05:42:06.315Z,48.99
2022-09-24T05:43:06.302Z,51.53
2022-09-24T05:44:06.299Z,52.38
2022-09-24T05:45:06.283Z,53.99
2022-09-24T05:46:06.408Z,49.81
2022-09-24T05:47:06.265Z,49.70
2022-09-24T05:48:06.288Z,48.62
2022-09-24T05:49:06.266Z,49.77
2022-09-24T05:50:06.287Z,50.56
2022-09-24T05:51:06.246Z,52.08
2022-09-24T05:52:06.238Z,49.32
2022-09-24T05:53:06.265Z,49.85
2022-09-24T05:54:06.287Z,50.13
2022-09-24T05:55:06.245Z,49.12
2022-09-24T05:56:06.222Z,51.39
2022-09-24T05:57:06.230Z,50.89
2022-09-24T05:58:06.245Z,48.78
2022-09-24T05:59:06.252Z,48.13
2022-09-24T06:00:06.218Z,50.31
2022-09-24T06:01:06.198Z,52.52
2022-09-24T06:02:06.338Z,57.96
2022-09-24T06:03:06.442Z,57.76
2022-09-24T06:04:08.863Z,57.08
2022-09-24T06:05:07.191Z,52.16
2022-09-24T06:06:06.178Z,50.86
2022-09-24T06:07:06.218Z,51.37
2022-09-24T06:08:06.168Z,51.95
2022-09-24T06:09:06.185Z,52.34
2022-09-24T06:10:06.161Z,54.10
2022-09-24T06:11:06.203Z,49.98
2022-09-24T06:12:06.154Z,50.09
2022-09-24T06:13:06.169Z,53.63
2022-09-24T06:14:06.160Z,55.76
2022-09-24T06:15:06.132Z,50.25
2022-09-24T06:16:06.147Z,52.23
2022-09-24T06:17:06.127Z,50.51
2022-09-24T06:18:06.151Z,50.29
2022-09-24T06:19:06.173Z,53.92
2022-09-24T06:20:06.090Z,53.10
2022-09-24T06:21:06.193Z,50.57
2022-09-24T06:22:06.080Z,49.63
2022-09-24T06:23:06.101Z,52.72
2022-09-24T06:24:06.170Z,52.98
2022-09-24T06:25:06.080Z,56.26
2022-09-24T06:26:06.092Z,51.88
2022-09-24T06:27:06.083Z,50.68
2022-09-24T06:28:06.081Z,50.98
2022-09-24T06:29:06.343Z,52.77
2022-09-24T06:30:06.089Z,49.94
2022-09-24T06:31:06.190Z,52.49
2022-09-24T06:32:06.044Z,51.15
2022-09-24T06:33:06.044Z,49.70
2022-09-24T06:34:06.032Z,50.38
2022-09-24T06:35:06.053Z,52.11
2022-09-24T06:36:06.031Z,49.86
2022-09-24T06:37:06.012Z,51.30
2022-09-24T06:38:06.061Z,51.51
2022-09-24T06:39:06.019Z,52.35
2022-09-24T06:40:06.107Z,50.61
2022-09-24T06:41:06.166Z,50.81
2022-09-24T06:42:05.985Z,49.53
2022-09-24T06:43:06.070Z,52.19
2022-09-24T06:44:05.979Z,50.42
2022-09-24T06:45:05.980Z,51.89
2022-09-24T06:46:06.044Z,53.56
2022-09-24T06:47:05.958Z,52.99
2022-09-24T06:48:06.014Z,54.36
2022-09-24T06:49:05.957Z,50.56
2022-09-24T06:50:05.951Z,52.19
2022-09-24T06:51:05.989Z,52.14
2022-09-24T06:52:05.966Z,51.67
2022-09-24T06:53:06.016Z,50.92
2022-09-24T06:54:05.938Z,51.81
2022-09-24T06:55:05.923Z,52.23
2022-09-24T06:56:05.925Z,51.90
2022-09-24T06:57:05.970Z,56.06
2022-09-24T06:58:05.947Z,51.24
2022-09-24T06:59:05.921Z,52.65
2022-09-24T07:00:05.909Z,52.17
2022-09-24T07:01:06.019Z,51.32
2022-09-24T07:02:05.983Z,51.01
2022-09-24T07:03:05.927Z,52.42
2022-09-24T07:04:05.870Z,50.29
2022-09-24T07:05:05.879Z,50.36
2022-09-24T07:06:05.868Z,53.86
2022-09-24T07:07:05.880Z,51.79
2022-09-24T07:08:05.859Z,51.91
2022-09-24T07:09:05.920Z,52.59
2022-09-24T07:10:05.852Z,52.64
2022-09-24T07:11:05.860Z,50.76
2022-09-24T07:12:05.846Z,51.27
2022-09-24T07:13:05.868Z,51.40
2022-09-24T07:14:05.826Z,51.67
2022-09-24T07:15:05.807Z,51.35
2022-09-24T07:16:05.866Z,53.24
2022-09-24T07:17:05.804Z,49.84
2022-09-24T07:18:05.864Z,49.80
2022-09-24T07:19:05.889Z,50.88
2022-09-24T07:20:05.798Z,54.31
2022-09-24T07:21:05.766Z,57.48
2022-09-24T07:22:05.779Z,51.40
2022-09-24T07:23:05.776Z,52.41
2022-09-24T07:24:05.877Z,51.30
2022-09-24T07:25:05.779Z,53.50
2022-09-24T07:26:05.746Z,49.76
2022-09-24T07:27:05.753Z,49.95
2022-09-24T07:28:05.756Z,52.07
2022-09-24T07:29:05.871Z,49.79
2022-09-24T07:30:05.764Z,52.52
2022-09-24T07:31:05.849Z,51.98
2022-09-24T07:32:05.752Z,52.81
2022-09-24T07:33:05.736Z,50.77
2022-09-24T07:34:05.788Z,49.71
2022-09-24T07:35:05.701Z,50.26
2022-09-24T07:36:05.707Z,53.03
2022-09-24T07:37:05.741Z,51.65
2022-09-24T07:38:05.724Z,52.97
2022-09-24T07:39:05.692Z,54.96
2022-09-24T07:40:05.860Z,52.44
2022-09-24T07:41:05.819Z,50.18
2022-09-24T07:42:05.668Z,54.65
2022-09-24T07:43:05.689Z,53.32
2022-09-24T07:44:05.737Z,53.50
2022-09-24T07:45:05.677Z,50.21
2022-09-24T07:46:05.689Z,52.99
2022-09-24T07:47:05.649Z,53.19
2022-09-24T07:48:05.645Z,51.25
2022-09-24T07:49:05.720Z,53.34
2022-09-24T07:50:05.652Z,55.61
2022-09-24T07:51:05.609Z,51.06
2022-09-24T07:52:05.625Z,48.41
2022-09-24T07:53:05.609Z,52.14
2022-09-24T07:54:05.717Z,51.92
2022-09-24T07:55:05.583Z,52.32
2022-09-24T07:56:05.619Z,53.16
2022-09-24T07:57:05.596Z,51.60
2022-09-24T07:58:05.602Z,50.72
2022-09-24T07:59:05.625Z,50.72
2022-09-24T08:00:05.729Z,50.02
2022-09-24T08:01:05.682Z,52.65
2022-09-24T08:02:05.663Z,51.74
2022-09-24T08:03:05.595Z,50.33
2022-09-24T08:04:05.672Z,49.46
2022-09-24T08:05:05.505Z,49.47
2022-09-24T08:06:05.541Z,49.61
2022-09-24T08:07:05.501Z,50.26
2022-09-24T08:08:05.514Z,51.57
2022-09-24T08:09:05.540Z,52.41
2022-09-24T08:10:05.578Z,51.50
2022-09-24T08:11:05.535Z,48.40
2022-09-24T08:12:05.489Z,50.70
2022-09-24T08:13:05.482Z,50.59
2022-09-24T08:14:05.542Z,49.99
2022-09-24T08:15:05.459Z,50.32
2022-09-24T08:16:05.495Z,49.21
2022-09-24T08:17:05.439Z,53.43
2022-09-24T08:18:05.461Z,51.80
2022-09-24T08:19:05.431Z,48.57
2022-09-24T08:20:05.426Z,51.23
2022-09-24T08:21:05.443Z,48.60
2022-09-24T08:22:05.450Z,49.04
2022-09-24T08:23:05.447Z,53.10
2022-09-24T08:24:05.389Z,54.91
2022-09-24T08:25:05.405Z,49.44
2022-09-24T08:26:05.473Z,49.53
2022-09-24T08:27:05.468Z,54.55
2022-09-24T08:28:05.435Z,52.20
2022-09-24T08:29:05.449Z,48.49
2022-09-24T08:30:05.378Z,52.11
2022-09-24T08:31:05.414Z,50.92
2022-09-24T08:32:05.377Z,52.59
2022-09-24T08:33:05.326Z,52.31
2022-09-24T08:34:05.381Z,47.57
2022-09-24T08:35:05.348Z,50.72
2022-09-24T08:36:05.319Z,50.08
2022-09-24T08:37:05.372Z,50.48
2022-09-24T08:38:05.302Z,49.50
2022-09-24T08:39:05.263Z,54.06
2022-09-24T08:40:05.794Z,51.75
2022-09-24T08:41:05.270Z,51.01
2022-09-24T08:42:05.323Z,53.26
2022-09-24T08:43:07.601Z,52.26
2022-09-24T08:44:06.292Z,49.67
2022-09-24T08:45:05.273Z,49.94
2022-09-24T08:46:05.575Z,49.89
2022-09-24T08:47:05.268Z,48.89
2022-09-24T08:48:05.196Z,47.91
2022-09-24T08:49:05.208Z,50.05
2022-09-24T08:50:05.189Z,50.22
2022-09-24T08:51:05.215Z,49.33
2022-09-24T08:52:05.162Z,49.03
2022-09-24T08:53:05.369Z,50.38
2022-09-24T08:54:05.159Z,49.10
2022-09-24T08:55:05.133Z,53.37
2022-09-24T08:56:05.172Z,50.41
2022-09-24T08:57:05.193Z,53.80
2022-09-24T08:58:05.123Z,52.82
2022-09-24T08:59:05.197Z,52.32
2022-09-24T09:00:05.107Z,56.30
2022-09-24T09:01:05.081Z,53.33
2022-09-24T09:02:05.287Z,58.84
2022-09-24T09:03:05.119Z,57.58
2022-09-24T09:04:05.181Z,60.16
2022-09-24T09:05:05.149Z,54.14
2022-09-24T09:06:05.108Z,52.52
2022-09-24T09:07:05.043Z,50.54
2022-09-24T09:08:09.697Z,49.66
2022-09-24T09:09:07.490Z,51.11
2022-09-24T09:10:06.054Z,51.56
2022-09-24T09:11:05.020Z,53.63
2022-09-24T09:12:05.038Z,52.27
2022-09-24T09:13:04.980Z,55.13
2022-09-24T09:14:04.976Z,54.42
2022-09-24T09:15:05.079Z,51.84
2022-09-24T09:16:04.997Z,51.89
2022-09-24T09:17:04.975Z,51.12
2022-09-24T09:18:04.966Z,52.34
2022-09-24T09:19:05.019Z,51.08
2022-09-24T09:20:05.054Z,52.61
2022-09-24T09:21:04.975Z,52.48
2022-09-24T09:22:04.936Z,52.99
2022-09-24T09:23:04.910Z,51.14
2022-09-24T09:24:04.902Z,52.64
2022-09-24T09:25:04.894Z,51.02
2022-09-24T09:26:04.987Z,52.91
2022-09-24T09:27:04.907Z,51.42
2022-09-24T09:28:04.897Z,54.49
2022-09-24T09:29:04.941Z,51.54
2022-09-24T09:30:07.186Z,52.81
2022-09-24T09:31:05.897Z,52.56
2022-09-24T09:32:04.870Z,52.41
2022-09-24T09:33:04.838Z,53.03
2022-09-24T09:34:04.875Z,53.78
2022-09-24T09:35:04.823Z,49.98
2022-09-24T09:36:04.815Z,55.20
2022-09-24T09:37:04.844Z,53.17
2022-09-24T09:38:04.812Z,50.95
2022-09-24T09:39:04.851Z,52.20
2022-09-24T09:40:04.781Z,51.91
2022-09-24T09:41:04.836Z,52.85
2022-09-24T09:42:04.787Z,51.17
2022-09-24T09:43:04.814Z,51.85
2022-09-24T09:44:04.811Z,52.02
2022-09-24T09:45:04.746Z,51.07
2022-09-24T09:46:04.764Z,50.19
2022-09-24T09:47:04.743Z,51.05
2022-09-24T09:48:04.749Z,51.61
2022-09-24T09:49:04.715Z,50.93
2022-09-24T09:50:04.722Z,51.95
2022-09-24T09:51:04.685Z,52.79
2022-09-24T09:52:04.731Z,48.73
2022-09-24T09:53:04.700Z,51.67
2022-09-24T09:54:04.778Z,51.32
2022-09-24T09:55:04.657Z,50.92
2022-09-24T09:56:04.679Z,53.13
2022-09-24T09:57:04.634Z,48.99
2022-09-24T09:58:04.678Z,52.69
2022-09-24T09:59:04.682Z,51.78
2022-09-24T10:00:04.657Z,51.36
2022-09-24T10:01:04.645Z,52.34
2022-09-24T10:02:04.647Z,50.04
2022-09-24T10:03:04.730Z,52.50
2022-09-24T10:04:04.629Z,55.48
2022-09-24T10:05:04.649Z,51.13
2022-09-24T10:06:04.587Z,49.68
2022-09-24T10:07:04.553Z,50.78
2022-09-24T10:08:04.565Z,50.39
2022-09-24T10:09:04.552Z,52.92
2022-09-24T10:10:04.567Z,52.68
2022-09-24T10:11:04.528Z,50.54
2022-09-24T10:12:04.524Z,51.51
2022-09-24T10:13:04.530Z,53.37
2022-09-24T10:14:04.659Z,51.41
2022-09-24T10:15:04.513Z,51.68
2022-09-24T10:16:04.548Z,49.04
2022-09-24T10:17:04.538Z,50.19
2022-09-24T10:18:04.479Z,52.10
2022-09-24T10:19:04.525Z,55.01
2022-09-24T10:20:04.463Z,52.82
2022-09-24T10:21:04.439Z,48.97
2022-09-24T10:22:04.509Z,48.75
2022-09-24T10:23:04.540Z,46.55
2022-09-24T10:24:04.481Z,50.01
2022-09-24T10:25:04.455Z,49.97
2022-09-24T10:26:04.431Z,48.28
2022-09-24T10:27:04.459Z,51.70
2022-09-24T10:28:04.408Z,50.36
2022-09-24T10:29:04.394Z,50.77
2022-09-24T10:30:04.396Z,51.14
2022-09-24T10:31:04.389Z,50.37
2022-09-24T10:32:04.356Z,49.46
2022-09-24T10:33:04.407Z,53.11
2022-09-24T10:34:04.335Z,50.23
2022-09-24T10:35:04.331Z,52.74
2022-09-24T10:36:04.367Z,52.45
2022-09-24T10:37:08.781Z,52.43
2022-09-24T10:38:06.362Z,51.88
2022-09-24T10:39:04.297Z,52.06
2022-09-24T10:40:04.304Z,53.45
2022-09-24T10:41:04.372Z,51.67
2022-09-24T10:42:04.277Z,49.53
2022-09-24T10:43:04.387Z,48.44
2022-09-24T10:44:04.272Z,48.87
2022-09-24T10:45:04.257Z,51.44
2022-09-24T10:46:04.331Z,52.13
2022-09-24T10:47:04.320Z,48.62
2022-09-24T10:48:04.287Z,49.88
2022-09-24T10:49:04.227Z,49.63
2022-09-24T10:50:04.228Z,50.66
2022-09-24T10:51:04.227Z,51.22
2022-09-24T10:52:04.274Z,48.52
2022-09-24T10:53:04.256Z,50.07
2022-09-24T10:54:04.237Z,50.41
2022-09-24T10:55:04.202Z,50.93
2022-09-24T10:56:04.201Z,49.89
2022-09-24T10:57:04.193Z,49.94
2022-09-24T10:58:04.169Z,52.90
2022-09-24T10:59:04.203Z,51.04
2022-09-24T11:00:04.146Z,51.33
2022-09-24T11:01:04.250Z,49.45
2022-09-24T11:02:04.215Z,50.99
2022-09-24T11:03:04.158Z,52.15
2022-09-24T11:04:04.105Z,51.55
2022-09-24T11:05:04.099Z,53.37
2022-09-24T11:06:04.194Z,48.79
2022-09-24T11:07:04.174Z,49.01
2022-09-24T11:08:04.238Z,51.21
2022-09-24T11:09:04.151Z,51.21
2022-09-24T11:10:04.060Z,48.17
2022-09-24T11:11:04.105Z,46.81
2022-09-24T11:12:04.074Z,48.52
2022-09-24T11:13:04.058Z,49.35
2022-09-24T11:14:04.036Z,49.90
2022-09-24T11:15:04.039Z,50.87
2022-09-24T11:16:04.119Z,50.66
2022-09-24T11:17:04.070Z,50.03
2022-09-24T11:18:04.009Z,48.11
2022-09-24T11:19:04.013Z,49.54
2022-09-24T11:20:03.995Z,47.84
2022-09-24T11:21:03.979Z,51.25
2022-09-24T11:22:04.028Z,60.82
2022-09-24T11:23:04.059Z,61.01
2022-09-24T11:24:04.022Z,58.05
2022-09-24T11:25:03.987Z,54.99
2022-09-24T11:26:03.951Z,59.79
2022-09-24T11:27:03.980Z,59.66
2022-09-24T11:28:03.948Z,54.74
2022-09-24T11:29:03.926Z,57.94
2022-09-24T11:30:03.912Z,61.78
2022-09-24T11:31:04.018Z,60.12
2022-09-24T11:32:03.957Z,58.15
2022-09-24T11:33:03.888Z,56.62
2022-09-24T11:34:03.886Z,58.62
2022-09-24T11:35:03.879Z,59.85
2022-09-24T11:36:03.852Z,59.69
2022-09-24T11:37:03.882Z,60.56
2022-09-24T11:38:04.003Z,61.92
2022-09-24T11:39:03.832Z,60.21
2022-09-24T11:40:04.892Z,59.65
2022-09-24T11:41:03.917Z,60.69
2022-09-24T11:42:03.814Z,59.25
2022-09-24T11:43:03.829Z,61.11
2022-09-24T11:44:03.895Z,60.35
2022-09-24T11:45:03.816Z,60.73
2022-09-24T11:46:03.918Z,60.33
2022-09-24T11:47:03.908Z,60.38
2022-09-24T11:48:03.798Z,60.60
2022-09-24T11:49:03.768Z,60.68
2022-09-24T11:50:03.779Z,55.17
2022-09-24T11:51:03.795Z,47.61
2022-09-24T11:52:03.813Z,47.57
2022-09-24T11:53:03.776Z,44.32
2022-09-24T11:54:03.756Z,47.23
2022-09-24T11:55:03.732Z,48.74
2022-09-24T11:56:03.746Z,47.51
2022-09-24T11:57:03.739Z,45.79
2022-09-24T11:58:03.754Z,51.70
2022-09-24T11:59:03.693Z,49.16
2022-09-24T12:00:03.742Z,49.23
2022-09-24T12:01:03.757Z,48.74
2022-09-24T12:02:03.757Z,48.67
2022-09-24T12:03:03.738Z,49.11
2022-09-24T12:04:03.808Z,51.10
2022-09-24T12:05:03.794Z,49.39
2022-09-24T12:06:03.681Z,46.87
2022-09-24T12:07:03.686Z,49.64
2022-09-24T12:08:03.697Z,46.26
2022-09-24T12:09:03.710Z,47.18
2022-09-24T12:10:03.688Z,47.32
2022-09-24T12:11:03.636Z,48.52
2022-09-24T12:12:03.685Z,47.79
2022-09-24T12:13:03.637Z,49.65
2022-09-24T12:14:03.640Z,46.39
2022-09-24T12:15:03.627Z,51.00
2022-09-24T12:16:03.703Z,49.94
2022-09-24T12:17:03.652Z,50.15
2022-09-24T12:18:03.616Z,47.21
2022-09-24T12:19:03.748Z,49.01
2022-09-24T12:20:03.606Z,46.80
2022-09-24T12:21:03.625Z,48.51
2022-09-24T12:22:03.625Z,48.54
2022-09-24T12:23:04.566Z,51.18
2022-09-24T12:24:03.669Z,52.15
2022-09-24T12:25:03.644Z,46.72
2022-09-24T12:26:03.596Z,47.77
2022-09-24T12:27:04.599Z,47.30
2022-09-24T12:28:03.582Z,44.77
2022-09-24T12:29:03.532Z,47.15
2022-09-24T12:30:03.527Z,49.61
2022-09-24T12:31:05.494Z,48.42
2022-09-24T12:32:04.536Z,50.70
2022-09-24T12:33:03.523Z,47.73
2022-09-24T12:34:03.525Z,48.70
2022-09-24T12:35:03.534Z,48.31
2022-09-24T12:36:03.492Z,45.45
2022-09-24T12:37:03.516Z,49.84
2022-09-24T12:38:03.485Z,48.03
2022-09-24T12:39:03.477Z,47.45
2022-09-24T12:40:03.538Z,48.13
2022-09-24T12:41:03.467Z,46.82
2022-09-24T12:42:03.482Z,50.81
2022-09-24T12:43:03.463Z,46.56
2022-09-24T12:44:03.505Z,46.22
2022-09-24T12:45:03.431Z,47.15
2022-09-24T12:46:03.518Z,53.89
2022-09-24T12:47:03.585Z,49.40
2022-09-24T12:48:04.425Z,48.42
2022-09-24T12:49:03.413Z,47.26
2022-09-24T12:50:03.405Z,46.96
2022-09-24T12:51:03.402Z,45.42
2022-09-24T12:52:03.423Z,48.15